Creedmoor, Texas
Current Conditions -  °F | °C
As of 2:15 AM on Monday 24 Nov 2014 (Local Time) from KHYI Reporting Station
Clear Clear  
Wind Chill: 52°   Ceiling: Unl
Heat Index: 52°   Visibility: 10mi
Dew Point: 37°   Wind: 13mph
Humidity: 58%   Direction: 10°N
Pressure: 29.92"   Gusts: 20mph
Location:  30.0694°N, 97.8797°W
Report Text: KHYI 240815Z 01011G17KT 10SM CLR 11/03 A2992 RMK AO1
Loading
Personal Weather Stations






























Interactive Weather Map New forecast layout! Learn more

10-Day Weather Forecast

Advertisements
Track Severe Weather on mobile